Time;durP1;ratioP1;P1;durP2;ratioP2;P2;SDS_P1;SDS_P2;PMS_P1;PMS_P2;Temp;Humidity;BMP_temperature;BMP_pressure;BME280_temperature;BME280_humidity;BME280_pressure;Samples;Min_cycle;Max_cycle;Signal;HPM_P1;HPM_P2
2021/05/12 00:01:22;;;;;;;7.08;2.62;;;;;;;13.46;60.39;99226.98;1889932;76;22518;-58
2021/05/12 00:03:56;;;;;;;5.10;2.30;;;;;;;13.40;60.35;99219.16;1870824;76;22515;-58
2021/05/12 00:06:31;;;;;;;6.25;2.20;;;;;;;13.33;60.62;99247.21;1870581;76;22599;-58
2021/05/12 00:09:06;;;;;;;4.22;2.15;;;;;;;13.27;60.90;99216.09;1870657;76;22535;-57
2021/05/12 00:11:40;;;;;;;6.85;2.10;;;;;;;13.22;60.79;99231.15;1889960;76;22112;-56
2021/05/12 00:14:27;;;;;;;6.35;2.00;;;;;;;13.13;60.74;99236.74;1861448;77;21103;-56
2021/05/12 00:17:01;;;;;;;5.22;2.65;;;;;;;13.10;60.52;99222.05;1870655;76;22109;-58
2021/05/12 00:19:38;;;;;;;4.05;1.90;;;;;;;13.04;58.70;99244.02;1870638;76;22156;-56
2021/05/12 00:22:28;;;;;;;5.95;2.30;;;;;;;12.98;58.40;99228.45;1870710;76;22112;-57
2021/05/12 00:24:48;;;;;;;7.37;2.52;;;;;;;12.90;58.05;99236.59;1870620;76;22105;-56
2021/05/12 00:27:35;;;;;;;4.62;2.00;;;;;;;12.77;57.48;99244.30;1827789;77;21229;-57
2021/05/12 00:30:16;;;;;;;3.85;2.20;;;;;;;12.73;57.65;99237.36;1870721;76;22157;-56
2021/05/12 00:32:50;;;;;;;4.65;2.30;;;;;;;12.66;57.88;99230.84;1870660;76;22112;-57
2021/05/12 00:35:26;;;;;;;6.90;2.10;;;;;;;12.58;57.71;99228.19;1854598;76;27916;-58
2021/05/12 00:38:01;;;;;;;3.55;2.02;;;;;;;12.52;57.69;99221.26;1889957;76;22108;-57
2021/05/12 00:40:35;;;;;;;5.97;2.35;;;;;;;12.45;57.86;99233.70;1870657;76;22130;-58
2021/05/12 00:43:10;;;;;;;3.72;2.25;;;;;;;12.38;57.68;99232.78;1870648;76;22579;-57
2021/05/12 00:45:44;;;;;;;6.90;1.70;;;;;;;12.31;57.33;99232.32;1889960;76;22136;-58
2021/05/12 00:48:19;;;;;;;7.53;2.02;;;;;;;12.25;57.82;99227.08;1890006;76;22179;-57
2021/05/12 00:50:53;;;;;;;3.52;1.90;;;;;;;12.19;58.12;99220.56;1870643;76;22105;-57
2021/05/12 00:53:40;;;;;;;5.05;1.98;;;;;;;12.09;58.21;99229.96;1827836;78;21589;-57
2021/05/12 00:56:15;;;;;;;4.20;2.20;;;;;;;12.07;58.46;99229.51;1835117;77;22203;-58
2021/05/12 00:58:50;;;;;;;3.75;2.20;;;;;;;12.00;58.49;99232.88;1870648;76;22141;-55
2021/05/12 01:01:25;;;;;;;4.00;2.27;;;;;;;11.95;59.02;99231.11;1870646;76;22113;-56
2021/05/12 01:04:00;;;;;;;3.50;1.95;;;;;;;11.89;59.34;99219.42;1870716;76;22555;-57
2021/05/12 01:06:38;;;;;;;6.62;2.17;;;;;;;11.84;59.56;99221.06;1889926;76;22551;-56
2021/05/12 01:09:14;;;;;;;3.87;2.27;;;;;;;11.77;59.78;99215.81;1889920;76;22140;-57
2021/05/12 01:11:49;;;;;;;4.78;2.00;;;;;;;11.71;60.11;99209.73;1854665;76;28332;-58
2021/05/12 01:14:31;;;;;;;3.83;1.98;;;;;;;11.69;60.16;99219.19;1889915;76;22156;-57
2021/05/12 01:17:06;;;;;;;5.78;2.20;;;;;;;11.64;60.37;99222.58;1854707;76;27876;-58
2021/05/12 01:19:42;;;;;;;4.47;2.05;;;;;;;11.62;60.41;99215.23;1870688;76;22116;-57
2021/05/12 01:22:17;;;;;;;5.90;2.37;;;;;;;11.55;59.92;99225.05;1889983;76;22112;-57
2021/05/12 01:24:51;;;;;;;4.47;2.20;;;;;;;11.48;60.01;99203.03;1870662;76;22120;-60
2021/05/12 01:27:26;;;;;;;2.90;1.80;;;;;;;11.39;59.97;99183.53;1870662;76;22563;-57
2021/05/12 01:30:05;;;;;;;5.60;2.05;;;;;;;11.32;59.74;99203.68;1854603;76;28309;-58
2021/05/12 01:32:39;;;;;;;6.00;2.52;;;;;;;11.30;59.79;99222.20;1889952;76;22526;-58
2021/05/12 01:35:13;;;;;;;4.28;1.90;;;;;;;11.23;59.98;99194.13;1870660;76;22153;-57
2021/05/12 01:37:50;;;;;;;5.87;1.62;;;;;;;11.14;60.38;99200.45;1870390;76;22113;-56
2021/05/12 01:40:25;;;;;;;3.15;2.15;;;;;;;11.05;60.47;99213.27;1890043;76;22181;-56
2021/05/12 01:43:10;;;;;;;7.65;2.00;;;;;;;10.95;60.65;99203.67;1861125;77;21156;-58
2021/05/12 01:45:47;;;;;;;5.10;2.17;;;;;;;10.91;61.14;99194.99;1870633;76;22559;-57
2021/05/12 01:48:23;;;;;;;8.83;2.12;;;;;;;10.83;61.51;99201.78;1870669;76;22113;-57
2021/05/12 01:50:59;;;;;;;4.30;1.95;;;;;;;10.78;61.83;99208.59;1870484;76;22113;-56
2021/05/12 01:53:34;;;;;;;3.83;2.00;;;;;;;10.72;62.14;99202.92;1870629;76;22117;-57
2021/05/12 01:56:10;;;;;;;3.55;1.98;;;;;;;10.65;62.34;99205.83;1870610;76;22144;-56
2021/05/12 01:58:45;;;;;;;4.80;2.25;;;;;;;10.58;62.62;99214.35;1889940;76;22136;-57
2021/05/12 02:01:21;;;;;;;6.70;2.20;;;;;;;10.52;62.94;99221.98;1870715;76;22132;-58
2021/05/12 02:04:09;;;;;;;4.97;2.10;;;;;;;10.39;63.21;99221.36;1827625;78;21130;-57
2021/05/12 02:06:43;;;;;;;7.10;2.62;;;;;;;10.35;63.68;99219.55;1870674;76;22559;-56
2021/05/12 02:09:19;;;;;;;5.65;2.25;;;;;;;10.28;64.10;99217.72;1870670;76;22526;-56
2021/05/12 02:11:54;;;;;;;7.35;2.37;;;;;;;10.19;64.64;99233.89;1870541;76;20160;-56
2021/05/12 02:14:31;;;;;;;4.65;2.20;;;;;;;10.12;64.88;99231.61;1854601;76;27811;-57
2021/05/12 02:17:05;;;;;;;6.85;2.37;;;;;;;10.09;65.26;99228.12;1854736;76;27893;-57
2021/05/12 02:19:40;;;;;;;4.75;1.85;;;;;;;10.07;65.37;99228.52;1870649;76;22133;-59
2021/05/12 02:22:15;;;;;;;3.00;1.90;;;;;;;9.99;65.49;99224.52;1873867;76;27875;-59
2021/05/12 02:24:50;;;;;;;4.37;1.82;;;;;;;9.97;65.59;99233.93;1870656;76;22113;-57
2021/05/12 02:27:24;;;;;;;3.42;1.87;;;;;;;9.91;65.82;99237.70;1870644;76;22153;-58
2021/05/12 02:30:01;;;;;;;3.83;1.70;;;;;;;9.84;66.06;99245.73;1854558;76;28031;-59
2021/05/12 02:32:37;;;;;;;3.50;1.80;;;;;;;9.85;66.13;99232.45;1854753;76;27886;-60
2021/05/12 02:35:14;;;;;;;3.17;1.85;;;;;;;9.84;66.30;99250.02;1889919;76;22135;-56
2021/05/12 02:37:49;;;;;;;5.65;1.82;;;;;;;9.76;66.58;99240.44;1889930;76;23678;-57
2021/05/12 02:40:25;;;;;;;4.15;1.95;;;;;;;9.71;66.84;99253.66;1854606;76;28314;-57
2021/05/12 02:43:06;;;;;;;3.70;1.72;;;;;;;9.70;67.08;99257.09;1890077;76;22200;-58
2021/05/12 02:45:41;;;;;;;4.55;2.10;;;;;;;9.65;67.34;99236.80;1870664;76;22116;-57
2021/05/12 02:48:16;;;;;;;4.33;2.17;;;;;;;9.61;67.62;99246.59;1870670;76;22145;-59
2021/05/12 02:50:50;;;;;;;4.40;2.42;;;;;;;9.58;67.85;99240.09;1889966;76;22136;-60
2021/05/12 02:53:25;;;;;;;3.52;1.90;;;;;;;9.54;68.01;99253.74;1870570;76;22156;-58
2021/05/12 02:56:00;;;;;;;2.70;1.70;;;;;;;9.52;68.10;99235.70;1870689;76;22607;-59
2021/05/12 02:58:34;;;;;;;2.62;1.67;;;;;;;9.52;68.05;99243.86;1890041;76;22551;-59
2021/05/12 03:01:09;;;;;;;3.55;2.00;;;;;;;9.50;68.14;99245.09;1870769;76;22144;-59
2021/05/12 03:03:43;;;;;;;3.42;1.87;;;;;;;9.51;68.03;99239.52;1870653;76;22133;-58
2021/05/12 03:06:18;;;;;;;4.22;1.82;;;;;;;9.50;68.17;99246.81;1889960;76;22132;-58
2021/05/12 03:08:54;;;;;;;4.03;1.82;;;;;;;9.50;68.16;99253.25;1854636;76;38715;-57
2021/05/12 03:11:40;;;;;;;3.92;1.62;;;;;;;9.49;68.05;99259.22;1827639;77;21150;-58
2021/05/12 03:14:15;;;;;;;4.30;1.52;;;;;;;9.53;68.00;99237.42;1854781;76;27914;-58
2021/05/12 03:17:10;;;;;;;7.85;1.70;;;;;;;9.59;67.86;99238.37;1876470;75;22627;-59
2021/05/12 03:19:45;;;;;;;6.00;2.00;;;;;;;9.58;67.91;99236.23;1870645;76;22536;-59
2021/05/12 03:22:20;;;;;;;6.55;2.98;;;;;;;9.58;67.96;99233.66;1889929;76;22136;-59
2021/05/12 03:24:54;;;;;;;10.78;2.20;;;;;;;9.58;68.06;99235.37;1870650;76;22109;-59
2021/05/12 03:27:29;;;;;;;6.87;2.25;;;;;;;9.57;68.09;99231.93;1870586;76;22169;-59
2021/05/12 03:30:09;;;;;;;10.13;2.40;;;;;;;9.58;68.05;99233.66;1870599;76;22269;-60
2021/05/12 03:32:44;;;;;;;8.35;2.90;;;;;;;9.57;68.15;99222.91;1870659;76;22117;-59
2021/05/12 03:35:19;;;;;;;11.20;2.67;;;;;;;9.58;68.33;99236.23;1870642;76;22105;-60
2021/05/12 03:38:00;;;;;;;14.07;3.22;;;;;;;9.58;68.47;99227.21;1889924;76;22139;-60
2021/05/12 03:40:35;;;;;;;8.50;2.95;;;;;;;9.61;68.58;99230.27;1870836;76;22144;-58
2021/05/12 03:43:10;;;;;;;8.75;3.12;;;;;;;9.64;68.48;99229.92;1889928;76;22156;-59
2021/05/12 03:45:45;;;;;;;16.90;3.55;;;;;;;9.66;68.33;99232.08;1889962;76;22108;-58
2021/05/12 03:48:21;;;;;;;10.55;3.12;;;;;;;9.69;68.28;99232.56;1854619;76;28340;-59
2021/05/12 03:50:55;;;;;;;7.05;2.45;;;;;;;9.76;68.14;99222.39;1870669;76;22140;-59
2021/05/12 03:53:30;;;;;;;6.85;2.20;;;;;;;9.80;68.02;99225.05;1870664;76;22191;-58
2021/05/12 03:56:15;;;;;;;9.68;2.35;;;;;;;9.77;67.80;99233.59;1827793;78;21573;-60
2021/05/12 03:58:51;;;;;;;6.20;2.40;;;;;;;9.84;67.84;99222.53;1854707;76;38655;-60
2021/05/12 04:01:26;;;;;;;7.45;2.58;;;;;;;9.91;67.60;99237.70;1870613;76;22133;-60
2021/05/12 04:04:05;;;;;;;9.28;2.15;;;;;;;9.86;67.49;99222.57;1870673;76;22235;-60
2021/05/12 04:06:39;;;;;;;4.80;2.37;;;;;;;9.84;67.54;99219.95;1889957;76;22147;-60
2021/05/12 04:09:13;;;;;;;6.95;2.20;;;;;;;9.86;67.56;99221.28;1870628;76;22152;-59
2021/05/12 04:11:48;;;;;;;5.08;1.98;;;;;;;9.90;67.49;99214.93;1889942;76;22116;-61
2021/05/12 04:14:23;;;;;;;4.75;2.42;;;;;;;9.95;67.31;99215.02;1870586;76;22559;-59
2021/05/12 04:16:59;;;;;;;4.40;1.77;;;;;;;9.99;67.02;99215.49;1889938;76;20097;-60
2021/05/12 04:19:46;;;;;;;5.45;1.70;;;;;;;9.96;66.96;99236.94;1791561;80;21568;-57
2021/05/12 04:22:21;;;;;;;4.28;1.65;;;;;;;9.99;66.78;99222.80;1870684;76;22141;-60
2021/05/12 04:24:55;;;;;;;5.00;1.60;;;;;;;10.00;66.74;99225.84;1870674;76;22100;-59
2021/05/12 04:27:30;;;;;;;6.00;1.90;;;;;;;10.02;66.68;99228.44;1890053;76;22136;-57
2021/05/12 04:30:11;;;;;;;5.28;1.82;;;;;;;10.04;66.80;99233.20;1870635;76;22180;-59
2021/05/12 04:32:47;;;;;;;8.33;1.50;;;;;;;10.10;66.93;99235.91;1870596;76;22149;-60
2021/05/12 04:35:22;;;;;;;6.35;1.92;;;;;;;10.13;66.87;99230.80;1873878;76;38201;-58
2021/05/12 04:38:07;;;;;;;4.60;1.60;;;;;;;10.13;66.96;99223.05;1791686;80;21154;-58
2021/05/12 04:40:43;;;;;;;4.75;1.90;;;;;;;10.18;67.21;99234.31;1889926;76;22171;-57
2021/05/12 04:43:17;;;;;;;7.58;1.32;;;;;;;10.21;67.22;99224.05;1870631;76;22105;-59
2021/05/12 04:45:53;;;;;;;6.20;1.70;;;;;;;10.28;67.27;99228.03;1873788;76;27846;-57
2021/05/12 04:48:29;;;;;;;8.03;2.02;;;;;;;10.35;66.75;99243.64;1870618;76;22132;-62
2021/05/12 04:51:14;;;;;;;5.22;1.95;;;;;;;10.34;66.64;99209.67;1760481;81;21125;-60
2021/05/12 04:53:50;;;;;;;4.65;1.80;;;;;;;10.38;66.71;99228.23;1854598;76;27805;-61
2021/05/12 04:56:25;;;;;;;5.20;1.40;;;;;;;10.47;66.56;99239.53;1889906;76;22112;-58
2021/05/12 04:59:02;;;;;;;4.45;1.50;;;;;;;10.49;66.40;99226.24;1873815;76;27868;-58
2021/05/12 05:01:36;;;;;;;3.67;1.32;;;;;;;10.54;66.39;99226.75;1873828;76;28318;-59
2021/05/12 05:04:12;;;;;;;4.00;1.42;;;;;;;10.59;66.16;99221.23;1889891;76;22514;-58
2021/05/12 05:06:53;;;;;;;2.55;1.17;;;;;;;10.61;66.09;99232.45;1869731;76;22142;-58
2021/05/12 05:09:28;;;;;;;2.92;1.45;;;;;;;10.64;66.04;99235.08;1870590;76;22137;-59
2021/05/12 05:12:03;;;;;;;3.75;1.70;;;;;;;10.70;65.90;99237.30;1889917;76;22116;-57
2021/05/12 05:14:38;;;;;;;3.52;1.60;;;;;;;10.78;65.82;99235.27;1873929;76;27897;-59
2021/05/12 05:17:15;;;;;;;5.50;1.60;;;;;;;10.91;65.37;99241.90;1835099;77;22148;-58
2021/05/12 05:20:01;;;;;;;3.35;1.90;;;;;;;10.88;65.17;99239.28;1728657;83;21137;-59
2021/05/12 05:22:36;;;;;;;4.90;1.70;;;;;;;10.92;65.28;99230.75;1889873;76;22136;-58
2021/05/12 05:25:12;;;;;;;4.65;2.45;;;;;;;10.95;65.29;99225.19;1870576;76;22157;-59
2021/05/12 05:27:47;;;;;;;5.72;2.15;;;;;;;11.01;65.23;99227.84;1889907;76;22589;-58
2021/05/12 05:30:22;;;;;;;2.67;1.67;;;;;;;11.57;64.22;99224.65;1889896;76;22599;-60
2021/05/12 05:33:01;;;;;;;5.58;1.82;;;;;;;12.61;61.17;99234.69;1870692;76;22117;-59
2021/05/12 05:35:45;;;;;;;2.95;1.90;;;;;;;14.02;56.86;99227.98;1870486;76;22113;-59
2021/05/12 05:38:20;;;;;;;5.25;1.50;;;;;;;15.26;52.99;99241.27;1870630;76;22141;-58
2021/05/12 05:40:55;;;;;;;4.47;1.50;;;;;;;16.36;49.51;99224.17;1870595;76;22141;-60
2021/05/12 05:44:00;;;;;;;6.12;1.17;;;;;;;17.09;47.71;99240.44;1812995;78;21126;-60
2021/05/12 05:46:34;;;;;;;3.45;1.70;;;;;;;18.07;44.89;99241.41;1868984;76;22172;-60
2021/05/12 05:49:10;;;;;;;5.80;1.45;;;;;;;18.46;44.06;99229.89;1843555;76;27907;-59
2021/05/12 05:52:14;;;;;;;4.45;1.37;;;;;;;18.60;43.29;99230.53;1828123;78;21186;-60
2021/05/12 05:54:50;;;;;;;3.52;1.50;;;;;;;19.08;41.93;99243.61;1830861;76;27928;-56
2021/05/12 05:57:24;;;;;;;3.83;1.40;;;;;;;19.66;40.80;99229.34;1853730;76;22174;-59
2021/05/12 06:00:08;;;;;;;4.03;1.60;;;;;;;20.05;39.91;99241.60;1862406;76;22177;-60
2021/05/12 06:02:47;;;;;;;7.30;1.42;;;;;;;19.35;40.33;99267.53;1832520;76;22201;-57
2021/05/12 06:05:23;;;;;;;5.37;1.10;;;;;;;18.94;41.38;99240.41;1863148;76;22189;-59
2021/05/12 06:08:28;;;;;;;3.72;1.07;;;;;;;18.94;41.38;99240.41;1827821;77;21284;-58
2021/05/12 06:11:04;;;;;;;6.12;1.00;;;;;;;19.46;40.78;99244.61;1866610;76;22270;-59
2021/05/12 06:13:58;;;;;;;5.03;1.62;;;;;;;19.28;40.75;99236.27;1871709;75;22598;-59
2021/05/12 06:16:37;;;;;;;5.15;1.30;;;;;;;18.98;41.08;99244.25;1841023;76;22196;-57
2021/05/12 06:19:41;;;;;;;3.02;0.93;;;;;;;18.60;41.54;99256.67;1795236;78;21495;-58
2021/05/12 06:22:16;;;;;;;2.92;1.20;;;;;;;18.68;41.99;99233.87;1848745;76;28483;-59
2021/05/12 06:24:51;;;;;;;2.87;1.50;;;;;;;18.92;40.98;99235.20;1850278;76;22581;-58
2021/05/12 06:27:26;;;;;;;6.08;1.22;;;;;;;19.42;40.22;99242.97;1847154;76;22601;-58
2021/05/12 06:30:31;;;;;;;4.75;1.20;;;;;;;19.60;39.24;99228.17;1795387;78;21143;-59
2021/05/12 06:33:07;;;;;;;3.00;1.30;;;;;;;20.40;37.53;99230.28;1848254;76;22179;-59
2021/05/12 06:35:42;;;;;;;3.22;1.22;;;;;;;20.83;37.04;99225.28;1842837;76;27981;-60
2021/05/12 06:38:17;;;;;;;1.60;0.80;;;;;;;21.67;35.27;99235.20;1864561;76;22132;-60
2021/05/12 06:40:52;;;;;;;2.50;0.80;;;;;;;21.15;35.36;99239.31;1856107;76;22318;-58
2021/05/12 06:43:28;;;;;;;3.47;1.00;;;;;;;21.11;36.06;99238.97;1837754;76;27867;-58
2021/05/12 06:46:15;;;;;;;2.42;1.05;;;;;;;20.82;36.48;99231.44;1801312;78;21278;-58
2021/05/12 06:48:51;;;;;;;4.33;1.00;;;;;;;20.60;36.28;99239.84;1829619;76;28424;-58
2021/05/12 06:51:25;;;;;;;4.72;1.10;;;;;;;19.95;37.19;99231.81;1835295;76;28444;-59
2021/05/12 06:54:00;;;;;;;1.35;0.80;;;;;;;19.97;36.90;99237.84;1857004;76;22157;-60
2021/05/12 06:56:41;;;;;;;7.62;4.75;;;;;;;17.90;40.27;99238.58;1852987;76;22205;-56
2021/05/12 06:59:27;;;;;;;3.72;1.42;;;;;;;16.61;43.11;99220.50;1795419;78;21755;-60
2021/05/12 07:02:02;;;;;;;4.55;1.27;;;;;;;17.32;42.34;99227.58;1868110;76;22195;-63
2021/05/12 07:04:36;;;;;;;3.98;0.70;;;;;;;18.43;40.11;99215.98;1858762;76;22183;-61
2021/05/12 07:07:12;;;;;;;2.10;0.90;;;;;;;19.26;38.31;99215.80;1839396;76;20115;-62
2021/05/12 07:09:53;;;;;;;4.80;1.10;;;;;;;19.52;37.69;99219.62;1838905;76;22208;-61
2021/05/12 07:12:28;;;;;;;5.10;1.20;;;;;;;18.71;39.03;99223.35;1846070;76;28064;-59
2021/05/12 07:15:06;;;;;;;2.50;0.93;;;;;;;17.99;40.25;99211.48;1869479;76;22169;-63
2021/05/12 07:17:42;;;;;;;2.10;0.62;;;;;;;18.52;39.38;99215.41;1862624;76;22171;-62
2021/05/12 07:20:19;;;;;;;3.65;1.10;;;;;;;18.78;38.62;99209.31;1869507;76;22661;-62
2021/05/12 07:23:08;;;;;;;11.80;7.10;;;;;;;18.50;39.04;99228.97;1866629;76;22156;-61
2021/05/12 07:25:43;;;;;;;7.60;1.30;;;;;;;17.45;41.00;99219.16;1849100;76;22140;-66
2021/05/12 07:28:19;;;;;;;4.87;1.32;;;;;;;16.34;43.39;99267.63;1835268;76;27985;-63
2021/05/12 07:30:54;;;;;;;23.32;16.25;;;;;;;15.51;44.88;99213.44;1837355;76;22341;-67
2021/05/12 07:33:29;;;;;;;10.82;6.22;;;;;;;16.50;43.78;99214.06;1808579;77;22325;-67
2021/05/12 07:36:05;;;;;;;4.10;0.78;;;;;;;16.62;43.21;99239.59;1846361;76;20134;-72
2021/05/12 07:38:40;;;;;;;7.30;1.65;;;;;;;16.79;42.51;99248.16;1861553;76;22171;-65
2021/05/12 07:41:15;;;;;;;5.62;1.00;;;;;;;16.44;43.08;99208.06;1847634;76;22197;-61
2021/05/12 07:44:02;;;;;;;2.33;1.10;;;;;;;16.30;43.28;99233.34;1798730;78;21200;-66
2021/05/12 07:46:37;;;;;;;4.87;1.90;;;;;;;16.04;43.69;99212.28;1848684;76;22230;-73
2021/05/12 07:49:31;;;;;;;3.02;0.82;;;;;;;15.72;44.89;99234.59;1856236;76;22628;-67
2021/05/12 07:54:53;;;;;;;4.10;1.10;;;;;;;15.91;44.71;99223.22;1836943;76;20317;-64
2021/05/12 07:57:40;;;;;;;3.25;1.50;;;;;;;15.21;46.09;99233.48;1808069;78;21134;-65
2021/05/12 08:00:22;;;;;;;6.35;0.98;;;;;;;14.77;47.52;99207.19;1855349;76;22603;-66
2021/05/12 08:02:56;;;;;;;4.37;1.50;;;;;;;14.79;47.67;99214.56;1820783;76;28417;-63
2021/05/12 08:05:32;;;;;;;8.60;1.20;;;;;;;14.84;47.40;99208.92;1852926;76;22171;-65
2021/05/12 08:08:09;;;;;;;8.68;1.50;;;;;;;14.69;47.96;99223.23;1858451;76;22207;-64
2021/05/12 08:10:55;;;;;;;7.85;2.10;;;;;;;14.39;48.86;99213.70;1812310;78;21287;-65
2021/05/12 08:13:29;;;;;;;6.37;1.47;;;;;;;14.37;49.34;99205.91;1862013;76;22176;-63
2021/05/12 08:16:05;;;;;;;5.58;1.98;;;;;;;14.44;49.30;99210.23;1867814;76;22156;-62
2021/05/12 08:18:40;;;;;;;4.08;1.57;;;;;;;14.49;49.70;99225.38;1859655;76;22170;-66
2021/05/12 08:21:35;;;;;;;5.47;1.50;;;;;;;14.21;50.43;99201.59;1852396;76;22240;-63
2021/05/12 08:24:09;;;;;;;3.62;1.30;;;;;;;14.05;50.86;99215.86;1864619;76;22196;-64
2021/05/12 08:26:45;;;;;;;5.40;1.40;;;;;;;13.77;51.04;99188.16;1834157;76;27945;-65
2021/05/12 08:29:19;;;;;;;5.40;1.40;;;;;;;13.79;51.27;99198.08;1864762;76;22195;-67
2021/05/12 08:31:54;;;;;;;5.65;1.50;;;;;;;13.76;51.51;99191.59;1835213;76;22233;-64
2021/05/12 08:34:29;;;;;;;6.08;1.45;;;;;;;14.13;51.21;99187.75;1843236;76;22221;-62
2021/05/12 08:37:14;;;;;;;121.42;76.90;;;;;;;14.53;50.07;99200.32;1816307;78;21296;-63
2021/05/12 08:39:49;;;;;;;6.60;2.80;;;;;;;15.12;49.10;99186.74;1838183;76;22180;-64
2021/05/12 08:42:24;;;;;;;5.05;1.60;;;;;;;15.39;48.16;99190.53;1862688;76;22185;-63
2021/05/12 08:45:00;;;;;;;8.83;2.92;;;;;;;15.67;47.80;99192.95;1850229;76;22159;-63
2021/05/12 08:47:35;;;;;;;8.10;3.90;;;;;;;15.62;47.02;99183.02;1862049;76;22180;-61
2021/05/12 08:50:10;;;;;;;3.22;1.52;;;;;;;15.11;48.33;99172.00;1851948;76;22312;-65
2021/05/12 08:52:52;;;;;;;9.00;3.30;;;;;;;14.44;50.10;99180.38;1839284;76;22628;-65
2021/05/12 08:55:39;;;;;;;4.55;1.12;;;;;;;14.26;51.01;99177.80;1799028;78;21282;-64
2021/05/12 08:58:14;;;;;;;2.00;0.90;;;;;;;14.18;51.69;99183.43;1846267;76;22614;-67
2021/05/12 09:00:50;;;;;;;4.72;1.20;;;;;;;14.28;51.34;99185.16;1833369;76;28313;-66
2021/05/12 09:03:30;;;;;;;2.85;1.15;;;;;;;14.59;51.32;99166.53;1852516;76;22161;-64
2021/05/12 09:06:06;;;;;;;2.70;1.05;;;;;;;14.76;50.17;99174.30;1818098;76;38921;-65
2021/05/12 09:08:56;;;;;;;5.28;1.17;;;;;;;14.42;50.67;99193.78;1794599;79;21655;-67
2021/05/12 09:11:32;;;;;;;2.83;1.10;;;;;;;14.13;51.68;99165.26;1846142;76;22171;-67
2021/05/12 09:14:33;;;;;;;3.72;1.37;;;;;;;14.06;52.03;99172.61;1866829;76;22570;-68
2021/05/12 09:17:07;;;;;;;4.42;1.40;;;;;;;13.80;52.87;99170.86;1871085;76;22235;-67
2021/05/12 09:19:41;;;;;;;2.85;0.90;;;;;;;13.82;52.65;99189.03;1853208;76;22167;-70
2021/05/12 09:22:37;;;;;;;2.27;1.00;;;;;;;13.82;52.70;99172.17;1853091;75;22237;-73
2021/05/12 09:27:51;;;;;;;2.55;1.00;;;;;;;13.93;51.96;99156.61;1845920;76;22171;-70
2021/05/12 09:30:25;;;;;;;2.92;1.10;;;;;;;13.92;52.22;99171.31;1862745;76;27890;-66
2021/05/12 09:33:00;;;;;;;5.72;1.32;;;;;;;13.88;51.97;99168.27;1850571;76;22196;-65
2021/05/12 09:35:42;;;;;;;3.42;0.90;;;;;;;13.71;52.44;99160.90;1859674;76;22187;-67
2021/05/12 09:38:27;;;;;;;5.25;1.20;;;;;;;13.62;52.89;99154.84;1871999;76;22612;-70
2021/05/12 09:41:13;;;;;;;2.62;1.07;;;;;;;13.79;52.63;99157.47;1873457;76;22182;-67
2021/05/12 09:43:51;;;;;;;4.22;0.90;;;;;;;13.92;52.06;99157.45;1847779;76;22151;-68
2021/05/12 09:46:29;;;;;;;6.10;1.45;;;;;;;14.13;52.03;99145.80;1855210;76;22632;-68
2021/05/12 09:49:08;;;;;;;3.50;1.20;;;;;;;14.49;51.47;99144.02;1846871;76;22162;-66
2021/05/12 09:51:50;;;;;;;2.92;1.35;;;;;;;14.81;50.43;99149.17;1845478;76;22157;-64
2021/05/12 09:54:28;;;;;;;2.17;1.05;;;;;;;15.08;50.07;99144.73;1848414;76;22163;-65
2021/05/12 09:57:02;;;;;;;5.00;1.20;;;;;;;15.02;49.91;99140.42;1850479;76;22610;-65
2021/05/12 09:59:37;;;;;;;3.40;1.10;;;;;;;15.16;48.95;99140.34;1831902;76;28052;-66
2021/05/12 10:02:13;;;;;;;1.65;0.88;;;;;;;15.28;48.25;99140.30;1839009;76;39291;-63
2021/05/12 10:04:49;;;;;;;1.20;0.70;;;;;;;15.49;47.08;99139.30;1847902;76;22183;-63
2021/05/12 10:07:27;;;;;;;4.53;1.10;;;;;;;15.49;46.37;99123.70;1849283;76;22214;-63
2021/05/12 10:10:07;;;;;;;3.40;1.07;;;;;;;15.35;46.90;99126.84;1856870;76;22194;-63
2021/05/12 10:12:43;;;;;;;4.62;1.05;;;;;;;15.22;47.54;99132.54;1841361;76;22614;-63
2021/05/12 10:15:18;;;;;;;5.03;1.00;;;;;;;15.19;48.04;99135.16;1853204;76;22570;-65
2021/05/12 10:17:54;;;;;;;2.77;1.22;;;;;;;15.16;48.40;99132.55;1850175;76;22263;-65
2021/05/12 10:20:28;;;;;;;3.30;0.93;;;;;;;15.06;48.65;99130.45;1849193;76;22188;-64
2021/05/12 10:23:03;;;;;;;4.55;1.17;;;;;;;15.05;49.03;99130.01;1870476;76;22143;-64
2021/05/12 10:25:39;;;;;;;8.03;1.25;;;;;;;14.89;49.57;99127.91;1852034;76;22216;-63
2021/05/12 10:28:20;;;;;;;3.02;1.05;;;;;;;14.71;50.15;99119.75;1836038;76;22230;-67
2021/05/12 10:30:55;;;;;;;3.72;1.20;;;;;;;14.88;49.68;99119.70;1835094;76;28076;-70
2021/05/12 10:33:54;;;;;;;2.05;0.90;;;;;;;15.11;48.97;99120.90;1849663;76;22142;-71
2021/05/12 10:36:43;;;;;;;2.90;1.00;;;;;;;15.18;49.25;99132.97;1858227;75;22159;-66
2021/05/12 10:39:30;;;;;;;7.05;1.32;;;;;;;15.07;48.77;99119.62;1821878;78;21673;-64
2021/05/12 10:42:05;;;;;;;3.77;1.32;;;;;;;15.08;49.22;99126.09;1864487;76;22595;-64
2021/05/12 10:44:47;;;;;;;4.12;1.10;;;;;;;15.20;48.75;99118.68;1861614;76;22190;-64
2021/05/12 10:47:21;;;;;;;2.98;1.22;;;;;;;15.28;48.63;99122.09;1854462;76;22178;-65
2021/05/12 10:49:57;;;;;;;6.28;1.42;;;;;;;15.13;48.45;99119.58;1840209;76;27875;-62
2021/05/12 10:53:02;;;;;;;3.02;1.10;;;;;;;15.23;47.83;99112.16;1863722;76;22218;-66
2021/05/12 10:55:59;;;;;;;2.17;0.95;;;;;;;15.33;47.51;99116.87;1856194;76;22178;-67
2021/05/12 10:58:41;;;;;;;1.82;0.78;;;;;;;15.35;46.84;99120.34;1849006;76;22175;-68
2021/05/12 11:01:15;;;;;;;3.87;1.00;;;;;;;15.26;46.98;99110.83;1851688;76;22165;-67
2021/05/12 11:04:07;;;;;;;8.20;1.40;;;;;;;15.24;46.85;99110.00;1796390;78;21137;-66
2021/05/12 11:06:48;;;;;;;5.70;1.05;;;;;;;15.45;46.48;99122.00;1860259;76;22199;-67
2021/05/12 11:09:42;;;;;;;3.47;1.05;;;;;;;15.52;46.71;99103.30;1880075;76;22175;-65
2021/05/12 11:12:20;;;;;;;2.70;1.00;;;;;;;15.69;46.21;99097.58;1864771;76;22172;-69
2021/05/12 11:14:57;;;;;;;3.72;0.80;;;;;;;16.02;45.63;99095.58;1867423;76;22183;-68
2021/05/12 11:17:46;;;;;;;7.22;1.35;;;;;;;16.19;45.41;99088.92;1861281;76;20218;-67
2021/05/12 11:20:24;;;;;;;2.40;1.10;;;;;;;16.30;45.19;99091.41;1878160;76;22569;-68
2021/05/12 11:22:59;;;;;;;8.05;1.45;;;;;;;16.22;44.88;99078.47;1855265;76;22163;-69
2021/05/12 11:25:42;;;;;;;6.40;1.22;;;;;;;16.19;45.18;99084.57;1848919;76;22126;-72
2021/05/12 11:28:58;;;;;;;3.47;1.00;;;;;;;16.14;44.96;99095.47;1803391;78;21153;-66
2021/05/12 11:31:28;;;;;;;3.67;1.12;;;;;;;15.98;45.17;99080.88;1838058;76;22191;-68
2021/05/12 11:34:05;;;;;;;2.67;1.00;;;;;;;15.85;45.68;99081.43;1856699;75;22179;-66
2021/05/12 11:36:41;;;;;;;4.83;1.20;;;;;;;15.95;45.22;99073.08;1834514;76;38167;-64
2021/05/12 11:39:15;;;;;;;4.78;1.10;;;;;;;16.18;44.78;99073.75;1856327;76;22160;-65
2021/05/12 11:41:51;;;;;;;4.28;1.20;;;;;;;16.45;44.48;99068.66;1845135;76;27837;-68
2021/05/12 11:44:28;;;;;;;4.62;0.78;;;;;;;16.73;43.88;99077.91;1850347;76;22180;-66
2021/05/12 11:47:03;;;;;;;3.67;0.95;;;;;;;16.56;43.67;99068.98;1875145;76;22204;-70
2021/05/12 11:49:49;;;;;;;2.47;0.78;;;;;;;16.08;44.47;99072.52;1841091;76;22611;-66
2021/05/12 11:52:34;;;;;;;3.75;1.37;;;;;;;15.71;45.60;99081.52;1747586;81;21274;-66
2021/05/12 11:55:11;;;;;;;4.97;2.15;;;;;;;15.38;46.94;99069.60;1847358;76;22178;-67
2021/05/12 11:57:46;;;;;;;3.85;1.32;;;;;;;15.36;47.21;99056.59;1846621;76;22594;-68
2021/05/12 12:00:34;;;;;;;5.45;1.02;;;;;;;15.44;47.30;99056.54;1885007;76;22284;-68
2021/05/12 12:03:17;;;;;;;6.25;1.22;;;;;;;15.39;47.58;99057.02;1876954;76;22637;-66
2021/05/12 12:06:05;;;;;;;5.42;1.10;;;;;;;15.49;46.73;99047.41;1847324;76;28382;-66
2021/05/12 12:08:41;;;;;;;3.25;0.70;;;;;;;15.58;45.78;99066.42;1847387;76;22171;-65
2021/05/12 12:11:30;;;;;;;5.72;1.10;;;;;;;15.38;46.39;99044.45;1795047;78;21225;-65
2021/05/12 12:14:08;;;;;;;4.37;1.07;;;;;;;15.54;46.40;99044.34;1848288;76;22187;-67
2021/05/12 12:16:45;;;;;;;5.28;1.47;;;;;;;15.72;46.02;99036.44;1861997;76;22179;-66
2021/05/12 12:19:21;;;;;;;7.58;1.40;;;;;;;15.87;45.72;99033.25;1842962;76;22202;-66
2021/05/12 12:21:55;;;;;;;6.10;1.00;;;;;;;15.93;45.86;99030.16;1863987;76;22156;-65
2021/05/12 12:24:32;;;;;;;4.78;1.02;;;;;;;15.75;45.85;99029.90;1852500;76;27954;-66
2021/05/12 12:27:08;;;;;;;3.90;1.07;;;;;;;15.59;46.41;99025.66;1844433;76;27869;-66
2021/05/12 12:29:51;;;;;;;2.25;1.00;;;;;;;15.78;46.08;99028.56;1865224;76;22247;-67
2021/05/12 12:32:32;;;;;;;4.20;1.05;;;;;;;15.94;45.75;99037.53;1868466;76;22218;-71